sensor_id;sensor_type;location;lat;lon;timestamp;P1;durP1;ratioP1;P2;durP2;ratioP2
44670;SDS011;48397;53.016;-2.260;2023-05-10T00:00:42;16.10;;;4.75;;
44670;SDS011;48397;53.016;-2.260;2023-05-10T00:03:12;13.48;;;4.45;;
44670;SDS011;48397;53.016;-2.260;2023-05-10T00:05:40;13.38;;;4.50;;
44670;SDS011;48397;53.016;-2.260;2023-05-10T00:08:07;16.55;;;4.97;;
44670;SDS011;48397;53.016;-2.260;2023-05-10T00:10:56;15.40;;;4.82;;
44670;SDS011;48397;53.016;-2.260;2023-05-10T00:13:23;7.43;;;3.67;;
44670;SDS011;48397;53.016;-2.260;2023-05-10T00:18:19;14.45;;;4.13;;
44670;SDS011;48397;53.016;-2.260;2023-05-10T00:20:46;11.13;;;4.40;;
44670;SDS011;48397;53.016;-2.260;2023-05-10T00:23:15;16.10;;;4.95;;
44670;SDS011;48397;53.016;-2.260;2023-05-10T00:25:43;14.68;;;5.13;;
44670;SDS011;48397;53.016;-2.260;2023-05-10T00:28:12;13.18;;;4.72;;
44670;SDS011;48397;53.016;-2.260;2023-05-10T00:30:39;13.50;;;5.60;;
44670;SDS011;48397;53.016;-2.260;2023-05-10T00:33:07;15.95;;;4.30;;
44670;SDS011;48397;53.016;-2.260;2023-05-10T00:35:34;16.90;;;5.30;;
44670;SDS011;48397;53.016;-2.260;2023-05-10T00:40:30;11.60;;;4.40;;
44670;SDS011;48397;53.016;-2.260;2023-05-10T00:43:02;13.52;;;3.90;;
44670;SDS011;48397;53.016;-2.260;2023-05-10T00:45:33;21.63;;;5.50;;
44670;SDS011;48397;53.016;-2.260;2023-05-10T00:48:03;18.52;;;5.95;;
44670;SDS011;48397;53.016;-2.260;2023-05-10T00:50:31;21.92;;;6.55;;
44670;SDS011;48397;53.016;-2.260;2023-05-10T00:53:00;17.00;;;5.45;;
44670;SDS011;48397;53.016;-2.260;2023-05-10T00:55:29;11.32;;;4.93;;
44670;SDS011;48397;53.016;-2.260;2023-05-10T00:57:58;15.15;;;4.40;;
44670;SDS011;48397;53.016;-2.260;2023-05-10T01:00:26;14.90;;;5.07;;
44670;SDS011;48397;53.016;-2.260;2023-05-10T01:05:22;18.02;;;5.72;;
44670;SDS011;48397;53.016;-2.260;2023-05-10T01:07:50;13.07;;;5.07;;
44670;SDS011;48397;53.016;-2.260;2023-05-10T01:10:18;13.50;;;4.57;;
44670;SDS011;48397;53.016;-2.260;2023-05-10T01:12:46;16.65;;;4.90;;
44670;SDS011;48397;53.016;-2.260;2023-05-10T01:15:15;14.55;;;4.85;;
44670;SDS011;48397;53.016;-2.260;2023-05-10T01:17:45;19.48;;;4.95;;
44670;SDS011;48397;53.016;-2.260;2023-05-10T01:20:15;11.57;;;4.68;;
44670;SDS011;48397;53.016;-2.260;2023-05-10T01:31:02;18.02;;;5.47;;
44670;SDS011;48397;53.016;-2.260;2023-05-10T01:33:56;15.95;;;5.25;;
44670;SDS011;48397;53.016;-2.260;2023-05-10T01:36:45;17.58;;;6.03;;
44670;SDS011;48397;53.016;-2.260;2023-05-10T01:39:23;12.82;;;4.90;;
44670;SDS011;48397;53.016;-2.260;2023-05-10T01:42:00;16.38;;;5.78;;
44670;SDS011;48397;53.016;-2.260;2023-05-10T01:50:39;11.82;;;5.30;;
44670;SDS011;48397;53.016;-2.260;2023-05-10T01:53:11;14.48;;;5.40;;
44670;SDS011;48397;53.016;-2.260;2023-05-10T01:55:44;15.10;;;4.90;;
44670;SDS011;48397;53.016;-2.260;2023-05-10T01:58:26;21.95;;;6.30;;
44670;SDS011;48397;53.016;-2.260;2023-05-10T02:00:57;19.05;;;6.28;;
44670;SDS011;48397;53.016;-2.260;2023-05-10T02:03:28;16.45;;;5.47;;
44670;SDS011;48397;53.016;-2.260;2023-05-10T02:05:59;20.95;;;6.50;;
44670;SDS011;48397;53.016;-2.260;2023-05-10T02:08:27;13.77;;;5.10;;
44670;SDS011;48397;53.016;-2.260;2023-05-10T02:10:56;18.05;;;6.15;;
44670;SDS011;48397;53.016;-2.260;2023-05-10T02:13:27;20.83;;;6.80;;
44670;SDS011;48397;53.016;-2.260;2023-05-10T02:15:57;17.60;;;5.85;;
44670;SDS011;48397;53.016;-2.260;2023-05-10T02:18:26;19.20;;;5.68;;
44670;SDS011;48397;53.016;-2.260;2023-05-10T02:20:55;18.70;;;5.40;;
44670;SDS011;48397;53.016;-2.260;2023-05-10T02:23:27;15.43;;;5.78;;
44670;SDS011;48397;53.016;-2.260;2023-05-10T02:25:59;13.02;;;5.72;;
44670;SDS011;48397;53.016;-2.260;2023-05-10T02:28:28;15.13;;;4.93;;
44670;SDS011;48397;53.016;-2.260;2023-05-10T02:30:59;14.57;;;4.95;;
44670;SDS011;48397;53.016;-2.260;2023-05-10T02:33:27;16.30;;;6.88;;
44670;SDS011;48397;53.016;-2.260;2023-05-10T02:35:56;20.52;;;6.28;;
44670;SDS011;48397;53.016;-2.260;2023-05-10T02:40:52;11.32;;;4.38;;
44670;SDS011;48397;53.016;-2.260;2023-05-10T02:43:22;16.25;;;5.15;;
44670;SDS011;48397;53.016;-2.260;2023-05-10T02:45:50;16.27;;;5.57;;
44670;SDS011;48397;53.016;-2.260;2023-05-10T02:48:20;14.30;;;5.57;;
44670;SDS011;48397;53.016;-2.260;2023-05-10T02:53:18;16.27;;;5.97;;
44670;SDS011;48397;53.016;-2.260;2023-05-10T02:55:57;17.35;;;5.95;;
44670;SDS011;48397;53.016;-2.260;2023-05-10T02:58:28;21.45;;;7.63;;
44670;SDS011;48397;53.016;-2.260;2023-05-10T03:00:59;18.65;;;6.60;;
44670;SDS011;48397;53.016;-2.260;2023-05-10T03:03:27;16.08;;;6.38;;
44670;SDS011;48397;53.016;-2.260;2023-05-10T03:05:55;15.50;;;5.80;;
44670;SDS011;48397;53.016;-2.260;2023-05-10T03:08:24;17.35;;;6.95;;
44670;SDS011;48397;53.016;-2.260;2023-05-10T03:11:07;12.77;;;5.97;;
44670;SDS011;48397;53.016;-2.260;2023-05-10T03:16:53;13.48;;;5.78;;
44670;SDS011;48397;53.016;-2.260;2023-05-10T03:19:35;14.32;;;6.03;;
44670;SDS011;48397;53.016;-2.260;2023-05-10T03:22:32;18.23;;;5.85;;
44670;SDS011;48397;53.016;-2.260;2023-05-10T03:25:06;15.80;;;5.80;;
44670;SDS011;48397;53.016;-2.260;2023-05-10T03:27:40;13.35;;;5.85;;
44670;SDS011;48397;53.016;-2.260;2023-05-10T03:30:10;16.30;;;5.43;;
44670;SDS011;48397;53.016;-2.260;2023-05-10T03:32:40;20.35;;;6.70;;
44670;SDS011;48397;53.016;-2.260;2023-05-10T03:35:09;16.77;;;6.22;;
44670;SDS011;48397;53.016;-2.260;2023-05-10T03:37:37;16.20;;;5.60;;
44670;SDS011;48397;53.016;-2.260;2023-05-10T03:42:36;17.58;;;6.72;;
44670;SDS011;48397;53.016;-2.260;2023-05-10T03:45:04;17.33;;;6.60;;
44670;SDS011;48397;53.016;-2.260;2023-05-10T03:47:32;17.90;;;6.55;;
44670;SDS011;48397;53.016;-2.260;2023-05-10T03:50:02;15.07;;;5.38;;
44670;SDS011;48397;53.016;-2.260;2023-05-10T03:52:30;10.85;;;4.85;;
44670;SDS011;48397;53.016;-2.260;2023-05-10T03:54:58;12.75;;;4.80;;
44670;SDS011;48397;53.016;-2.260;2023-05-10T03:57:26;17.13;;;5.75;;
44670;SDS011;48397;53.016;-2.260;2023-05-10T03:59:54;12.63;;;5.82;;
44670;SDS011;48397;53.016;-2.260;2023-05-10T04:02:23;19.58;;;6.32;;
44670;SDS011;48397;53.016;-2.260;2023-05-10T04:04:51;15.93;;;5.97;;
44670;SDS011;48397;53.016;-2.260;2023-05-10T04:07:19;16.35;;;5.85;;
44670;SDS011;48397;53.016;-2.260;2023-05-10T04:09:47;24.45;;;6.07;;
44670;SDS011;48397;53.016;-2.260;2023-05-10T04:12:14;17.42;;;5.68;;
44670;SDS011;48397;53.016;-2.260;2023-05-10T04:14:42;14.82;;;5.68;;
44670;SDS011;48397;53.016;-2.260;2023-05-10T04:17:10;15.90;;;5.28;;
44670;SDS011;48397;53.016;-2.260;2023-05-10T04:22:05;14.07;;;5.45;;
44670;SDS011;48397;53.016;-2.260;2023-05-10T04:24:34;15.15;;;5.50;;
44670;SDS011;48397;53.016;-2.260;2023-05-10T04:27:02;14.05;;;5.38;;
44670;SDS011;48397;53.016;-2.260;2023-05-10T04:29:29;16.50;;;5.80;;
44670;SDS011;48397;53.016;-2.260;2023-05-10T04:32:01;17.60;;;6.25;;
44670;SDS011;48397;53.016;-2.260;2023-05-10T04:34:29;12.18;;;5.30;;
44670;SDS011;48397;53.016;-2.260;2023-05-10T04:36:56;17.08;;;5.70;;
44670;SDS011;48397;53.016;-2.260;2023-05-10T04:39:24;14.63;;;5.97;;
44670;SDS011;48397;53.016;-2.260;2023-05-10T04:41:51;14.68;;;5.70;;
44670;SDS011;48397;53.016;-2.260;2023-05-10T04:49:15;17.13;;;5.88;;
44670;SDS011;48397;53.016;-2.260;2023-05-10T04:54:11;16.33;;;6.10;;
44670;SDS011;48397;53.016;-2.260;2023-05-10T04:56:39;18.55;;;6.40;;
44670;SDS011;48397;53.016;-2.260;2023-05-10T04:59:07;16.17;;;6.00;;
44670;SDS011;48397;53.016;-2.260;2023-05-10T05:01:35;20.42;;;6.28;;
44670;SDS011;48397;53.016;-2.260;2023-05-10T05:04:03;17.05;;;6.72;;
44670;SDS011;48397;53.016;-2.260;2023-05-10T05:06:31;16.10;;;5.80;;
44670;SDS011;48397;53.016;-2.260;2023-05-10T05:08:59;19.60;;;6.75;;
44670;SDS011;48397;53.016;-2.260;2023-05-10T05:11:27;14.40;;;5.97;;
44670;SDS011;48397;53.016;-2.260;2023-05-10T05:16:22;13.45;;;5.93;;
44670;SDS011;48397;53.016;-2.260;2023-05-10T05:18:50;17.73;;;6.63;;
44670;SDS011;48397;53.016;-2.260;2023-05-10T05:21:18;19.52;;;7.32;;
44670;SDS011;48397;53.016;-2.260;2023-05-10T05:23:47;15.80;;;6.53;;
44670;SDS011;48397;53.016;-2.260;2023-05-10T05:26:14;17.85;;;6.57;;
44670;SDS011;48397;53.016;-2.260;2023-05-10T05:28:43;14.02;;;6.38;;
44670;SDS011;48397;53.016;-2.260;2023-05-10T05:31:11;22.63;;;7.43;;
44670;SDS011;48397;53.016;-2.260;2023-05-10T05:33:40;15.35;;;6.07;;
44670;SDS011;48397;53.016;-2.260;2023-05-10T05:36:07;15.88;;;5.95;;
44670;SDS011;48397;53.016;-2.260;2023-05-10T05:41:03;14.55;;;6.22;;
44670;SDS011;48397;53.016;-2.260;2023-05-10T05:45:59;18.80;;;6.80;;
44670;SDS011;48397;53.016;-2.260;2023-05-10T05:48:32;21.48;;;6.93;;
44670;SDS011;48397;53.016;-2.260;2023-05-10T05:50:59;18.83;;;6.25;;
44670;SDS011;48397;53.016;-2.260;2023-05-10T05:53:27;20.17;;;7.13;;
44670;SDS011;48397;53.016;-2.260;2023-05-10T05:55:55;17.17;;;7.70;;
44670;SDS011;48397;53.016;-2.260;2023-05-10T05:58:26;20.20;;;6.30;;
44670;SDS011;48397;53.016;-2.260;2023-05-10T06:00:56;14.95;;;5.72;;
44670;SDS011;48397;53.016;-2.260;2023-05-10T06:03:24;18.60;;;6.85;;
44670;SDS011;48397;53.016;-2.260;2023-05-10T06:05:52;18.60;;;6.47;;
44670;SDS011;48397;53.016;-2.260;2023-05-10T06:08:20;16.33;;;5.88;;
44670;SDS011;48397;53.016;-2.260;2023-05-10T06:10:48;16.17;;;6.30;;
44670;SDS011;48397;53.016;-2.260;2023-05-10T06:13:16;16.85;;;5.70;;
44670;SDS011;48397;53.016;-2.260;2023-05-10T06:15:44;14.23;;;5.68;;
44670;SDS011;48397;53.016;-2.260;2023-05-10T06:18:12;16.10;;;5.50;;
44670;SDS011;48397;53.016;-2.260;2023-05-10T06:20:42;10.20;;;5.10;;
44670;SDS011;48397;53.016;-2.260;2023-05-10T06:23:10;17.48;;;5.50;;
44670;SDS011;48397;53.016;-2.260;2023-05-10T06:25:37;15.82;;;5.63;;
44670;SDS011;48397;53.016;-2.260;2023-05-10T06:28:05;15.02;;;6.10;;
44670;SDS011;48397;53.016;-2.260;2023-05-10T06:30:33;13.30;;;4.78;;
44670;SDS011;48397;53.016;-2.260;2023-05-10T06:33:02;8.98;;;4.13;;
44670;SDS011;48397;53.016;-2.260;2023-05-10T06:35:31;13.10;;;4.40;;
44670;SDS011;48397;53.016;-2.260;2023-05-10T06:38:01;10.77;;;3.22;;
44670;SDS011;48397;53.016;-2.260;2023-05-10T06:40:28;14.52;;;5.30;;
44670;SDS011;48397;53.016;-2.260;2023-05-10T06:42:56;10.43;;;3.78;;
44670;SDS011;48397;53.016;-2.260;2023-05-10T06:45:24;13.27;;;4.78;;
44670;SDS011;48397;53.016;-2.260;2023-05-10T06:47:51;11.57;;;4.38;;
44670;SDS011;48397;53.016;-2.260;2023-05-10T06:50:19;12.55;;;3.90;;
44670;SDS011;48397;53.016;-2.260;2023-05-10T06:52:47;8.93;;;3.40;;
44670;SDS011;48397;53.016;-2.260;2023-05-10T06:55:19;7.55;;;3.38;;
44670;SDS011;48397;53.016;-2.260;2023-05-10T06:57:46;9.02;;;2.90;;
44670;SDS011;48397;53.016;-2.260;2023-05-10T07:02:43;10.40;;;3.50;;
44670;SDS011;48397;53.016;-2.260;2023-05-10T07:05:11;9.23;;;3.13;;
44670;SDS011;48397;53.016;-2.260;2023-05-10T07:07:39;11.90;;;3.35;;
44670;SDS011;48397;53.016;-2.260;2023-05-10T07:12:35;7.93;;;2.75;;
44670;SDS011;48397;53.016;-2.260;2023-05-10T07:15:03;9.95;;;2.75;;
44670;SDS011;48397;53.016;-2.260;2023-05-10T07:17:31;6.60;;;2.33;;
44670;SDS011;48397;53.016;-2.260;2023-05-10T07:20:00;2.65;;;1.65;;
44670;SDS011;48397;53.016;-2.260;2023-05-10T07:22:28;5.80;;;2.85;;
44670;SDS011;48397;53.016;-2.260;2023-05-10T07:24:56;5.10;;;2.00;;
44670;SDS011;48397;53.016;-2.260;2023-05-10T07:27:26;5.25;;;2.25;;
44670;SDS011;48397;53.016;-2.260;2023-05-10T07:29:54;7.05;;;2.53;;
44670;SDS011;48397;53.016;-2.260;2023-05-10T07:32:23;3.88;;;1.85;;
44670;SDS011;48397;53.016;-2.260;2023-05-10T07:34:50;10.65;;;3.10;;
44670;SDS011;48397;53.016;-2.260;2023-05-10T07:37:18;4.05;;;1.90;;
44670;SDS011;48397;53.016;-2.260;2023-05-10T07:39:46;8.13;;;2.40;;
44670;SDS011;48397;53.016;-2.260;2023-05-10T07:42:14;8.35;;;2.90;;
44670;SDS011;48397;53.016;-2.260;2023-05-10T07:44:42;6.20;;;2.47;;
44670;SDS011;48397;53.016;-2.260;2023-05-10T07:49:37;8.50;;;2.63;;
44670;SDS011;48397;53.016;-2.260;2023-05-10T07:52:05;8.98;;;2.60;;
44670;SDS011;48397;53.016;-2.260;2023-05-10T07:57:02;7.30;;;2.90;;
44670;SDS011;48397;53.016;-2.260;2023-05-10T07:59:29;4.80;;;2.00;;
44670;SDS011;48397;53.016;-2.260;2023-05-10T08:01:57;8.95;;;2.00;;
44670;SDS011;48397;53.016;-2.260;2023-05-10T08:04:25;8.32;;;2.22;;
44670;SDS011;48397;53.016;-2.260;2023-05-10T08:06:53;8.35;;;3.15;;
44670;SDS011;48397;53.016;-2.260;2023-05-10T08:09:20;8.50;;;2.90;;
44670;SDS011;48397;53.016;-2.260;2023-05-10T08:11:51;9.15;;;3.30;;
44670;SDS011;48397;53.016;-2.260;2023-05-10T08:14:19;9.52;;;3.10;;
44670;SDS011;48397;53.016;-2.260;2023-05-10T08:16:46;8.13;;;3.55;;
44670;SDS011;48397;53.016;-2.260;2023-05-10T08:19:15;8.23;;;2.85;;
44670;SDS011;48397;53.016;-2.260;2023-05-10T08:21:47;8.93;;;3.20;;
44670;SDS011;48397;53.016;-2.260;2023-05-10T08:24:14;7.60;;;2.88;;
44670;SDS011;48397;53.016;-2.260;2023-05-10T08:29:10;12.63;;;2.75;;
44670;SDS011;48397;53.016;-2.260;2023-05-10T08:31:38;8.68;;;3.42;;
44670;SDS011;48397;53.016;-2.260;2023-05-10T08:34:05;8.52;;;3.13;;
44670;SDS011;48397;53.016;-2.260;2023-05-10T08:36:33;7.32;;;3.03;;
44670;SDS011;48397;53.016;-2.260;2023-05-10T08:39:01;8.63;;;2.92;;
44670;SDS011;48397;53.016;-2.260;2023-05-10T08:43:56;7.20;;;2.85;;
44670;SDS011;48397;53.016;-2.260;2023-05-10T08:46:25;6.40;;;2.97;;
44670;SDS011;48397;53.016;-2.260;2023-05-10T08:48:54;3.95;;;2.53;;
44670;SDS011;48397;53.016;-2.260;2023-05-10T08:51:23;4.53;;;2.30;;
44670;SDS011;48397;53.016;-2.260;2023-05-10T08:53:53;10.27;;;3.10;;
44670;SDS011;48397;53.016;-2.260;2023-05-10T08:56:22;8.20;;;3.17;;
44670;SDS011;48397;53.016;-2.260;2023-05-10T08:58:51;8.40;;;3.28;;
44670;SDS011;48397;53.016;-2.260;2023-05-10T09:01:18;8.60;;;3.70;;
44670;SDS011;48397;53.016;-2.260;2023-05-10T09:03:48;7.07;;;2.85;;
44670;SDS011;48397;53.016;-2.260;2023-05-10T09:06:18;6.05;;;2.83;;
44670;SDS011;48397;53.016;-2.260;2023-05-10T09:08:46;7.40;;;3.22;;
44670;SDS011;48397;53.016;-2.260;2023-05-10T09:11:14;8.00;;;3.92;;
44670;SDS011;48397;53.016;-2.260;2023-05-10T09:13:43;7.38;;;3.50;;
44670;SDS011;48397;53.016;-2.260;2023-05-10T09:16:11;10.20;;;3.47;;
44670;SDS011;48397;53.016;-2.260;2023-05-10T09:18:48;9.15;;;3.50;;
44670;SDS011;48397;53.016;-2.260;2023-05-10T09:21:16;8.07;;;3.03;;
44670;SDS011;48397;53.016;-2.260;2023-05-10T09:23:46;8.13;;;3.28;;
44670;SDS011;48397;53.016;-2.260;2023-05-10T09:26:14;8.70;;;2.80;;
44670;SDS011;48397;53.016;-2.260;2023-05-10T09:28:51;7.82;;;2.70;;
44670;SDS011;48397;53.016;-2.260;2023-05-10T09:31:21;4.13;;;2.03;;
44670;SDS011;48397;53.016;-2.260;2023-05-10T09:33:50;9.25;;;2.70;;
44670;SDS011;48397;53.016;-2.260;2023-05-10T09:36:18;4.97;;;2.40;;
44670;SDS011;48397;53.016;-2.260;2023-05-10T09:38:46;6.45;;;2.33;;
44670;SDS011;48397;53.016;-2.260;2023-05-10T09:41:19;4.03;;;1.70;;
44670;SDS011;48397;53.016;-2.260;2023-05-10T09:43:49;3.40;;;1.77;;
44670;SDS011;48397;53.016;-2.260;2023-05-10T09:46:18;8.40;;;2.17;;
44670;SDS011;48397;53.016;-2.260;2023-05-10T09:48:46;4.32;;;1.55;;
44670;SDS011;48397;53.016;-2.260;2023-05-10T09:51:21;6.45;;;1.90;;
44670;SDS011;48397;53.016;-2.260;2023-05-10T09:54:33;5.82;;;2.13;;
44670;SDS011;48397;53.016;-2.260;2023-05-10T09:56:42;4.15;;;1.85;;
44670;SDS011;48397;53.016;-2.260;2023-05-10T09:59:10;2.80;;;1.55;;
44670;SDS011;48397;53.016;-2.260;2023-05-10T10:01:39;3.20;;;1.70;;
44670;SDS011;48397;53.016;-2.260;2023-05-10T10:04:08;3.75;;;1.40;;
44670;SDS011;48397;53.016;-2.260;2023-05-10T10:06:40;2.83;;;1.30;;
44670;SDS011;48397;53.016;-2.260;2023-05-10T10:09:08;7.72;;;1.80;;
44670;SDS011;48397;53.016;-2.260;2023-05-10T10:11:37;5.78;;;1.58;;
44670;SDS011;48397;53.016;-2.260;2023-05-10T10:14:05;4.82;;;1.50;;
44670;SDS011;48397;53.016;-2.260;2023-05-10T10:16:33;6.10;;;1.45;;
44670;SDS011;48397;53.016;-2.260;2023-05-10T10:19:02;6.93;;;1.70;;
44670;SDS011;48397;53.016;-2.260;2023-05-10T10:21:30;3.65;;;1.30;;
44670;SDS011;48397;53.016;-2.260;2023-05-10T10:23:59;5.30;;;2.00;;
44670;SDS011;48397;53.016;-2.260;2023-05-10T10:26:27;4.32;;;1.60;;
44670;SDS011;48397;53.016;-2.260;2023-05-10T10:35:01;3.10;;;1.35;;
44670;SDS011;48397;53.016;-2.260;2023-05-10T10:37:46;4.20;;;1.42;;
44670;SDS011;48397;53.016;-2.260;2023-05-10T10:40:24;3.00;;;1.20;;
44670;SDS011;48397;53.016;-2.260;2023-05-10T10:42:53;1.58;;;0.90;;
44670;SDS011;48397;53.016;-2.260;2023-05-10T10:45:21;1.85;;;0.80;;
44670;SDS011;48397;53.016;-2.260;2023-05-10T10:50:57;3.17;;;1.10;;
44670;SDS011;48397;53.016;-2.260;2023-05-10T10:53:28;4.00;;;1.40;;
44670;SDS011;48397;53.016;-2.260;2023-05-10T10:56:06;2.38;;;1.10;;
44670;SDS011;48397;53.016;-2.260;2023-05-10T10:58:38;2.97;;;1.30;;
44670;SDS011;48397;53.016;-2.260;2023-05-10T11:01:11;2.20;;;0.90;;
44670;SDS011;48397;53.016;-2.260;2023-05-10T11:06:31;3.13;;;1.30;;
44670;SDS011;48397;53.016;-2.260;2023-05-10T11:09:00;6.20;;;1.30;;
44670;SDS011;48397;53.016;-2.260;2023-05-10T11:11:52;3.85;;;1.30;;
44670;SDS011;48397;53.016;-2.260;2023-05-10T11:14:25;2.45;;;1.35;;
44670;SDS011;48397;53.016;-2.260;2023-05-10T11:16:53;4.55;;;1.50;;
44670;SDS011;48397;53.016;-2.260;2023-05-10T11:19:21;3.92;;;1.52;;
44670;SDS011;48397;53.016;-2.260;2023-05-10T11:24:41;2.45;;;1.30;;
44670;SDS011;48397;53.016;-2.260;2023-05-10T11:27:25;5.15;;;1.50;;
44670;SDS011;48397;53.016;-2.260;2023-05-10T11:29:52;6.07;;;1.67;;
44670;SDS011;48397;53.016;-2.260;2023-05-10T11:32:20;2.97;;;1.65;;
44670;SDS011;48397;53.016;-2.260;2023-05-10T11:34:49;4.57;;;1.80;;
44670;SDS011;48397;53.016;-2.260;2023-05-10T11:37:17;4.28;;;1.77;;
44670;SDS011;48397;53.016;-2.260;2023-05-10T11:39:46;5.10;;;1.60;;
44670;SDS011;48397;53.016;-2.260;2023-05-10T11:42:20;3.33;;;1.40;;
44670;SDS011;48397;53.016;-2.260;2023-05-10T11:44:48;3.22;;;1.27;;
44670;SDS011;48397;53.016;-2.260;2023-05-10T11:47:17;4.00;;;1.30;;
44670;SDS011;48397;53.016;-2.260;2023-05-10T11:49:45;3.78;;;1.42;;
44670;SDS011;48397;53.016;-2.260;2023-05-10T11:52:14;4.47;;;1.40;;
44670;SDS011;48397;53.016;-2.260;2023-05-10T11:54:46;3.30;;;1.60;;
44670;SDS011;48397;53.016;-2.260;2023-05-10T11:57:19;2.63;;;0.80;;
44670;SDS011;48397;53.016;-2.260;2023-05-10T11:59:52;3.35;;;1.02;;
44670;SDS011;48397;53.016;-2.260;2023-05-10T12:02:21;3.25;;;1.17;;
44670;SDS011;48397;53.016;-2.260;2023-05-10T12:04:50;3.50;;;1.40;;
44670;SDS011;48397;53.016;-2.260;2023-05-10T12:07:18;2.25;;;1.00;;
44670;SDS011;48397;53.016;-2.260;2023-05-10T12:12:42;1.33;;;0.80;;
44670;SDS011;48397;53.016;-2.260;2023-05-10T12:15:22;1.23;;;0.80;;
44670;SDS011;48397;53.016;-2.260;2023-05-10T12:17:51;2.60;;;0.90;;
44670;SDS011;48397;53.016;-2.260;2023-05-10T12:20:20;3.75;;;1.50;;
44670;SDS011;48397;53.016;-2.260;2023-05-10T12:22:51;2.28;;;1.10;;
44670;SDS011;48397;53.016;-2.260;2023-05-10T12:25:21;1.85;;;1.00;;
44670;SDS011;48397;53.016;-2.260;2023-05-10T12:27:56;3.03;;;1.20;;
44670;SDS011;48397;53.016;-2.260;2023-05-10T12:30:26;2.28;;;1.20;;
44670;SDS011;48397;53.016;-2.260;2023-05-10T12:33:14;1.17;;;0.60;;
44670;SDS011;48397;53.016;-2.260;2023-05-10T12:35:45;0.90;;;0.80;;
44670;SDS011;48397;53.016;-2.260;2023-05-10T12:38:32;2.95;;;0.98;;
44670;SDS011;48397;53.016;-2.260;2023-05-10T12:41:02;2.30;;;0.75;;
44670;SDS011;48397;53.016;-2.260;2023-05-10T12:43:35;2.35;;;1.52;;
44670;SDS011;48397;53.016;-2.260;2023-05-10T12:46:14;3.22;;;0.95;;
44670;SDS011;48397;53.016;-2.260;2023-05-10T12:48:44;2.97;;;1.33;;
44670;SDS011;48397;53.016;-2.260;2023-05-10T12:51:14;2.42;;;1.30;;
44670;SDS011;48397;53.016;-2.260;2023-05-10T12:53:44;5.03;;;2.08;;
44670;SDS011;48397;53.016;-2.260;2023-05-10T12:56:17;3.90;;;2.10;;
44670;SDS011;48397;53.016;-2.260;2023-05-10T12:58:44;1.88;;;1.50;;
44670;SDS011;48397;53.016;-2.260;2023-05-10T13:01:15;3.22;;;1.85;;
44670;SDS011;48397;53.016;-2.260;2023-05-10T13:03:42;1.80;;;1.08;;
44670;SDS011;48397;53.016;-2.260;2023-05-10T13:06:10;5.32;;;1.70;;
44670;SDS011;48397;53.016;-2.260;2023-05-10T13:08:40;3.92;;;1.63;;
44670;SDS011;48397;53.016;-2.260;2023-05-10T13:11:07;2.10;;;1.17;;
44670;SDS011;48397;53.016;-2.260;2023-05-10T13:13:35;2.78;;;1.33;;
44670;SDS011;48397;53.016;-2.260;2023-05-10T13:16:03;2.95;;;1.70;;
44670;SDS011;48397;53.016;-2.260;2023-05-10T13:18:31;3.50;;;1.80;;
44670;SDS011;48397;53.016;-2.260;2023-05-10T13:20:59;1.98;;;1.33;;
44670;SDS011;48397;53.016;-2.260;2023-05-10T13:23:26;4.53;;;2.22;;
44670;SDS011;48397;53.016;-2.260;2023-05-10T13:25:54;2.95;;;1.55;;
44670;SDS011;48397;53.016;-2.260;2023-05-10T13:28:22;3.85;;;1.50;;
44670;SDS011;48397;53.016;-2.260;2023-05-10T13:30:49;3.67;;;1.52;;
44670;SDS011;48397;53.016;-2.260;2023-05-10T13:33:17;2.08;;;1.50;;
44670;SDS011;48397;53.016;-2.260;2023-05-10T13:35:44;2.42;;;1.05;;
44670;SDS011;48397;53.016;-2.260;2023-05-10T13:38:12;3.20;;;1.63;;
44670;SDS011;48397;53.016;-2.260;2023-05-10T13:40:40;3.10;;;1.80;;
44670;SDS011;48397;53.016;-2.260;2023-05-10T13:45:36;3.83;;;2.70;;
44670;SDS011;48397;53.016;-2.260;2023-05-10T13:48:03;7.30;;;3.90;;
44670;SDS011;48397;53.016;-2.260;2023-05-10T13:50:31;8.07;;;3.92;;
44670;SDS011;48397;53.016;-2.260;2023-05-10T13:52:59;3.47;;;2.38;;
44670;SDS011;48397;53.016;-2.260;2023-05-10T13:55:27;6.30;;;3.22;;
44670;SDS011;48397;53.016;-2.260;2023-05-10T13:57:55;3.67;;;2.42;;
44670;SDS011;48397;53.016;-2.260;2023-05-10T14:00:23;6.45;;;3.20;;
44670;SDS011;48397;53.016;-2.260;2023-05-10T14:02:50;5.05;;;3.15;;
44670;SDS011;48397;53.016;-2.260;2023-05-10T14:05:18;4.40;;;3.50;;
44670;SDS011;48397;53.016;-2.260;2023-05-10T14:07:52;4.15;;;2.22;;
44670;SDS011;48397;53.016;-2.260;2023-05-10T14:10:19;5.35;;;2.85;;
44670;SDS011;48397;53.016;-2.260;2023-05-10T14:12:47;3.83;;;2.25;;
44670;SDS011;48397;53.016;-2.260;2023-05-10T14:15:14;4.15;;;2.60;;
44670;SDS011;48397;53.016;-2.260;2023-05-10T14:17:43;4.68;;;2.40;;
44670;SDS011;48397;53.016;-2.260;2023-05-10T14:20:11;2.90;;;2.17;;
44670;SDS011;48397;53.016;-2.260;2023-05-10T14:22:38;4.78;;;3.03;;
44670;SDS011;48397;53.016;-2.260;2023-05-10T14:25:07;3.30;;;1.77;;
44670;SDS011;48397;53.016;-2.260;2023-05-10T14:27:35;3.38;;;2.03;;
44670;SDS011;48397;53.016;-2.260;2023-05-10T14:30:03;4.57;;;1.70;;
44670;SDS011;48397;53.016;-2.260;2023-05-10T14:32:31;2.92;;;2.25;;
44670;SDS011;48397;53.016;-2.260;2023-05-10T14:34:59;3.42;;;2.90;;
44670;SDS011;48397;53.016;-2.260;2023-05-10T14:37:27;4.97;;;3.70;;
44670;SDS011;48397;53.016;-2.260;2023-05-10T14:39:54;6.22;;;4.00;;
44670;SDS011;48397;53.016;-2.260;2023-05-10T14:42:22;9.43;;;5.20;;
44670;SDS011;48397;53.016;-2.260;2023-05-10T14:44:50;7.65;;;3.97;;
44670;SDS011;48397;53.016;-2.260;2023-05-10T14:49:46;5.40;;;2.75;;
44670;SDS011;48397;53.016;-2.260;2023-05-10T14:52:14;4.75;;;2.75;;
44670;SDS011;48397;53.016;-2.260;2023-05-10T14:54:42;4.45;;;2.15;;
44670;SDS011;48397;53.016;-2.260;2023-05-10T14:57:10;5.32;;;2.70;;
44670;SDS011;48397;53.016;-2.260;2023-05-10T14:59:37;6.68;;;3.33;;
44670;SDS011;48397;53.016;-2.260;2023-05-10T15:02:05;5.45;;;3.38;;
44670;SDS011;48397;53.016;-2.260;2023-05-10T15:04:35;5.63;;;3.20;;
44670;SDS011;48397;53.016;-2.260;2023-05-10T15:07:03;3.53;;;2.15;;
44670;SDS011;48397;53.016;-2.260;2023-05-10T15:09:31;4.65;;;2.35;;
44670;SDS011;48397;53.016;-2.260;2023-05-10T15:11:59;3.83;;;2.17;;
44670;SDS011;48397;53.016;-2.260;2023-05-10T15:14:27;4.25;;;2.50;;
44670;SDS011;48397;53.016;-2.260;2023-05-10T15:16:55;5.93;;;2.55;;
44670;SDS011;48397;53.016;-2.260;2023-05-10T15:19:23;4.90;;;2.08;;
44670;SDS011;48397;53.016;-2.260;2023-05-10T15:21:53;4.05;;;2.13;;
44670;SDS011;48397;53.016;-2.260;2023-05-10T15:24:22;4.72;;;2.28;;
44670;SDS011;48397;53.016;-2.260;2023-05-10T15:26:49;4.05;;;2.47;;
44670;SDS011;48397;53.016;-2.260;2023-05-10T15:29:17;4.95;;;1.88;;
44670;SDS011;48397;53.016;-2.260;2023-05-10T15:31:47;4.07;;;2.00;;
44670;SDS011;48397;53.016;-2.260;2023-05-10T15:34:16;3.17;;;1.60;;
44670;SDS011;48397;53.016;-2.260;2023-05-10T15:36:44;4.05;;;2.13;;
44670;SDS011;48397;53.016;-2.260;2023-05-10T15:39:13;5.03;;;2.92;;
44670;SDS011;48397;53.016;-2.260;2023-05-10T15:41:40;6.10;;;2.55;;
44670;SDS011;48397;53.016;-2.260;2023-05-10T15:44:09;4.22;;;2.70;;
44670;SDS011;48397;53.016;-2.260;2023-05-10T15:46:38;5.15;;;2.17;;
44670;SDS011;48397;53.016;-2.260;2023-05-10T15:51:33;4.53;;;2.08;;
44670;SDS011;48397;53.016;-2.260;2023-05-10T15:54:02;2.03;;;1.67;;
44670;SDS011;48397;53.016;-2.260;2023-05-10T15:56:34;2.33;;;1.45;;
44670;SDS011;48397;53.016;-2.260;2023-05-10T15:59:02;2.88;;;1.50;;
44670;SDS011;48397;53.016;-2.260;2023-05-10T16:01:30;3.13;;;1.48;;
44670;SDS011;48397;53.016;-2.260;2023-05-10T16:03:59;5.30;;;1.80;;
44670;SDS011;48397;53.016;-2.260;2023-05-10T16:06:26;2.92;;;1.80;;
44670;SDS011;48397;53.016;-2.260;2023-05-10T16:08:54;2.05;;;1.60;;
44670;SDS011;48397;53.016;-2.260;2023-05-10T16:11:21;5.97;;;2.10;;